sensor_id;sensor_type;location;lat;lon;timestamp;P1;durP1;ratioP1;P2;durP2;ratioP2
45490;SDS011;31237;45.586;13.782;2023-12-29T00:01:54;38.88;;;24.23;;
45490;SDS011;31237;45.586;13.782;2023-12-29T00:04:20;48.55;;;26.30;;
45490;SDS011;31237;45.586;13.782;2023-12-29T00:06:46;39.42;;;23.98;;
45490;SDS011;31237;45.586;13.782;2023-12-29T00:09:11;37.50;;;23.08;;
45490;SDS011;31237;45.586;13.782;2023-12-29T00:11:40;40.72;;;24.13;;
45490;SDS011;31237;45.586;13.782;2023-12-29T00:14:06;40.90;;;25.00;;
45490;SDS011;31237;45.586;13.782;2023-12-29T00:16:31;41.75;;;23.50;;
45490;SDS011;31237;45.586;13.782;2023-12-29T00:18:57;46.30;;;25.05;;
45490;SDS011;31237;45.586;13.782;2023-12-29T00:21:23;43.22;;;25.05;;
45490;SDS011;31237;45.586;13.782;2023-12-29T00:23:48;41.63;;;25.67;;
45490;SDS011;31237;45.586;13.782;2023-12-29T00:26:17;54.88;;;28.50;;
45490;SDS011;31237;45.586;13.782;2023-12-29T00:28:43;56.10;;;30.50;;
45490;SDS011;31237;45.586;13.782;2023-12-29T00:31:13;52.25;;;29.63;;
45490;SDS011;31237;45.586;13.782;2023-12-29T00:33:43;52.85;;;30.45;;
45490;SDS011;31237;45.586;13.782;2023-12-29T00:36:14;58.95;;;32.40;;
45490;SDS011;31237;45.586;13.782;2023-12-29T00:38:43;58.83;;;32.13;;
45490;SDS011;31237;45.586;13.782;2023-12-29T00:41:09;57.25;;;32.40;;
45490;SDS011;31237;45.586;13.782;2023-12-29T00:43:35;57.92;;;31.58;;
45490;SDS011;31237;45.586;13.782;2023-12-29T00:46:04;59.55;;;32.58;;
45490;SDS011;31237;45.586;13.782;2023-12-29T00:48:30;62.97;;;32.55;;
45490;SDS011;31237;45.586;13.782;2023-12-29T00:50:56;58.45;;;32.88;;
45490;SDS011;31237;45.586;13.782;2023-12-29T00:53:22;51.30;;;29.85;;
45490;SDS011;31237;45.586;13.782;2023-12-29T00:55:48;56.60;;;30.48;;
45490;SDS011;31237;45.586;13.782;2023-12-29T00:58:13;52.25;;;29.10;;
45490;SDS011;31237;45.586;13.782;2023-12-29T01:00:39;47.47;;;28.50;;
45490;SDS011;31237;45.586;13.782;2023-12-29T01:03:05;41.65;;;26.77;;
45490;SDS011;31237;45.586;13.782;2023-12-29T01:05:31;40.72;;;24.48;;
45490;SDS011;31237;45.586;13.782;2023-12-29T01:07:56;42.53;;;25.58;;
45490;SDS011;31237;45.586;13.782;2023-12-29T01:10:22;38.63;;;22.98;;
45490;SDS011;31237;45.586;13.782;2023-12-29T01:12:48;41.25;;;23.75;;
45490;SDS011;31237;45.586;13.782;2023-12-29T01:15:14;40.55;;;23.65;;
45490;SDS011;31237;45.586;13.782;2023-12-29T01:17:39;41.47;;;22.25;;
45490;SDS011;31237;45.586;13.782;2023-12-29T01:20:05;41.88;;;23.50;;
45490;SDS011;31237;45.586;13.782;2023-12-29T01:22:31;47.75;;;26.13;;
45490;SDS011;31237;45.586;13.782;2023-12-29T01:25:00;46.17;;;25.77;;
45490;SDS011;31237;45.586;13.782;2023-12-29T01:27:26;47.85;;;26.70;;
45490;SDS011;31237;45.586;13.782;2023-12-29T01:29:52;44.33;;;25.77;;
45490;SDS011;31237;45.586;13.782;2023-12-29T01:32:18;44.00;;;24.83;;
45490;SDS011;31237;45.586;13.782;2023-12-29T01:34:44;41.70;;;25.08;;
45490;SDS011;31237;45.586;13.782;2023-12-29T01:37:10;47.20;;;26.63;;
45490;SDS011;31237;45.586;13.782;2023-12-29T01:39:36;47.33;;;26.77;;
45490;SDS011;31237;45.586;13.782;2023-12-29T01:42:01;49.25;;;26.48;;
45490;SDS011;31237;45.586;13.782;2023-12-29T01:44:27;51.78;;;28.38;;
45490;SDS011;31237;45.586;13.782;2023-12-29T01:46:53;49.65;;;28.52;;
45490;SDS011;31237;45.586;13.782;2023-12-29T01:49:21;48.78;;;26.60;;
45490;SDS011;31237;45.586;13.782;2023-12-29T01:51:51;56.20;;;29.60;;
45490;SDS011;31237;45.586;13.782;2023-12-29T01:54:19;53.88;;;29.33;;
45490;SDS011;31237;45.586;13.782;2023-12-29T01:56:50;55.85;;;30.70;;
45490;SDS011;31237;45.586;13.782;2023-12-29T01:59:20;52.35;;;30.60;;
45490;SDS011;31237;45.586;13.782;2023-12-29T02:01:46;49.35;;;29.73;;
45490;SDS011;31237;45.586;13.782;2023-12-29T02:04:12;54.88;;;29.77;;
45490;SDS011;31237;45.586;13.782;2023-12-29T02:06:39;59.45;;;31.35;;
45490;SDS011;31237;45.586;13.782;2023-12-29T02:09:06;52.70;;;30.27;;
45490;SDS011;31237;45.586;13.782;2023-12-29T02:11:31;61.90;;;30.95;;
45490;SDS011;31237;45.586;13.782;2023-12-29T02:13:58;49.47;;;30.35;;
45490;SDS011;31237;45.586;13.782;2023-12-29T02:16:30;53.47;;;29.92;;
45490;SDS011;31237;45.586;13.782;2023-12-29T02:19:04;55.33;;;32.33;;
45490;SDS011;31237;45.586;13.782;2023-12-29T02:21:43;61.03;;;31.67;;
45490;SDS011;31237;45.586;13.782;2023-12-29T02:24:08;50.55;;;31.75;;
45490;SDS011;31237;45.586;13.782;2023-12-29T02:26:34;54.33;;;28.83;;
45490;SDS011;31237;45.586;13.782;2023-12-29T02:29:02;51.72;;;29.35;;
45490;SDS011;31237;45.586;13.782;2023-12-29T02:31:33;53.75;;;29.95;;
45490;SDS011;31237;45.586;13.782;2023-12-29T02:34:02;52.90;;;29.73;;
45490;SDS011;31237;45.586;13.782;2023-12-29T02:36:31;61.85;;;35.35;;
45490;SDS011;31237;45.586;13.782;2023-12-29T02:38:58;61.35;;;35.05;;
45490;SDS011;31237;45.586;13.782;2023-12-29T02:41:24;67.00;;;38.22;;
45490;SDS011;31237;45.586;13.782;2023-12-29T02:43:50;79.57;;;41.92;;
45490;SDS011;31237;45.586;13.782;2023-12-29T02:46:16;82.82;;;44.97;;
45490;SDS011;31237;45.586;13.782;2023-12-29T02:48:42;91.72;;;45.10;;
45490;SDS011;31237;45.586;13.782;2023-12-29T02:51:08;76.20;;;40.95;;
45490;SDS011;31237;45.586;13.782;2023-12-29T02:53:34;76.93;;;40.60;;
45490;SDS011;31237;45.586;13.782;2023-12-29T02:55:59;77.90;;;41.95;;
45490;SDS011;31237;45.586;13.782;2023-12-29T02:58:25;72.90;;;40.78;;
45490;SDS011;31237;45.586;13.782;2023-12-29T03:00:51;74.70;;;40.53;;
45490;SDS011;31237;45.586;13.782;2023-12-29T03:03:16;77.43;;;41.50;;
45490;SDS011;31237;45.586;13.782;2023-12-29T03:05:42;85.32;;;42.08;;
45490;SDS011;31237;45.586;13.782;2023-12-29T03:08:08;80.35;;;41.00;;
45490;SDS011;31237;45.586;13.782;2023-12-29T03:10:33;85.15;;;43.13;;
45490;SDS011;31237;45.586;13.782;2023-12-29T03:12:59;98.45;;;50.03;;
45490;SDS011;31237;45.586;13.782;2023-12-29T03:15:25;106.00;;;51.67;;
45490;SDS011;31237;45.586;13.782;2023-12-29T03:17:50;100.03;;;52.58;;
45490;SDS011;31237;45.586;13.782;2023-12-29T03:20:16;93.97;;;48.95;;
45490;SDS011;31237;45.586;13.782;2023-12-29T03:22:42;97.43;;;50.00;;
45490;SDS011;31237;45.586;13.782;2023-12-29T03:25:07;99.65;;;51.58;;
45490;SDS011;31237;45.586;13.782;2023-12-29T03:27:33;104.47;;;50.75;;
45490;SDS011;31237;45.586;13.782;2023-12-29T03:29:59;103.25;;;54.38;;
45490;SDS011;31237;45.586;13.782;2023-12-29T03:32:24;98.05;;;52.80;;
45490;SDS011;31237;45.586;13.782;2023-12-29T03:34:50;108.45;;;54.20;;
45490;SDS011;31237;45.586;13.782;2023-12-29T03:37:16;105.25;;;51.65;;
45490;SDS011;31237;45.586;13.782;2023-12-29T03:39:41;113.88;;;55.50;;
45490;SDS011;31237;45.586;13.782;2023-12-29T03:42:07;106.30;;;55.88;;
45490;SDS011;31237;45.586;13.782;2023-12-29T03:44:33;112.75;;;54.95;;
45490;SDS011;31237;45.586;13.782;2023-12-29T03:46:58;114.07;;;55.05;;
45490;SDS011;31237;45.586;13.782;2023-12-29T03:49:24;114.13;;;55.40;;
45490;SDS011;31237;45.586;13.782;2023-12-29T03:51:50;116.90;;;56.28;;
45490;SDS011;31237;45.586;13.782;2023-12-29T03:54:16;111.75;;;55.78;;
45490;SDS011;31237;45.586;13.782;2023-12-29T03:56:43;112.35;;;56.03;;
45490;SDS011;31237;45.586;13.782;2023-12-29T03:59:09;114.93;;;56.10;;
45490;SDS011;31237;45.586;13.782;2023-12-29T04:01:34;110.75;;;53.88;;
45490;SDS011;31237;45.586;13.782;2023-12-29T04:04:00;103.32;;;55.05;;
45490;SDS011;31237;45.586;13.782;2023-12-29T04:06:26;107.78;;;52.13;;
45490;SDS011;31237;45.586;13.782;2023-12-29T04:08:51;106.05;;;51.75;;
45490;SDS011;31237;45.586;13.782;2023-12-29T04:11:17;108.22;;;51.72;;
45490;SDS011;31237;45.586;13.782;2023-12-29T04:13:43;107.70;;;50.80;;
45490;SDS011;31237;45.586;13.782;2023-12-29T04:16:09;95.75;;;51.30;;
45490;SDS011;31237;45.586;13.782;2023-12-29T04:18:34;111.22;;;53.63;;
45490;SDS011;31237;45.586;13.782;2023-12-29T04:21:00;111.22;;;53.72;;
45490;SDS011;31237;45.586;13.782;2023-12-29T04:23:26;109.35;;;54.28;;
45490;SDS011;31237;45.586;13.782;2023-12-29T04:25:51;102.68;;;52.00;;
45490;SDS011;31237;45.586;13.782;2023-12-29T04:28:17;113.35;;;53.50;;
45490;SDS011;31237;45.586;13.782;2023-12-29T04:30:43;107.45;;;53.00;;
45490;SDS011;31237;45.586;13.782;2023-12-29T04:33:08;106.10;;;52.28;;
45490;SDS011;31237;45.586;13.782;2023-12-29T04:35:34;108.57;;;51.35;;
45490;SDS011;31237;45.586;13.782;2023-12-29T04:38:00;107.05;;;51.50;;
45490;SDS011;31237;45.586;13.782;2023-12-29T04:40:25;110.45;;;54.58;;
45490;SDS011;31237;45.586;13.782;2023-12-29T04:42:51;113.25;;;53.08;;
45490;SDS011;31237;45.586;13.782;2023-12-29T04:45:17;110.55;;;53.95;;
45490;SDS011;31237;45.586;13.782;2023-12-29T04:47:43;120.22;;;54.83;;
45490;SDS011;31237;45.586;13.782;2023-12-29T04:50:08;110.53;;;53.10;;
45490;SDS011;31237;45.586;13.782;2023-12-29T04:52:34;104.53;;;49.60;;
45490;SDS011;31237;45.586;13.782;2023-12-29T04:55:00;109.75;;;54.20;;
45490;SDS011;31237;45.586;13.782;2023-12-29T04:57:26;111.07;;;56.83;;
45490;SDS011;31237;45.586;13.782;2023-12-29T04:59:51;119.13;;;59.92;;
45490;SDS011;31237;45.586;13.782;2023-12-29T05:02:17;116.35;;;55.58;;
45490;SDS011;31237;45.586;13.782;2023-12-29T05:04:44;94.78;;;47.35;;
45490;SDS011;31237;45.586;13.782;2023-12-29T05:07:11;88.97;;;45.55;;
45490;SDS011;31237;45.586;13.782;2023-12-29T05:09:37;90.45;;;45.97;;
45490;SDS011;31237;45.586;13.782;2023-12-29T05:12:03;95.13;;;49.58;;
45490;SDS011;31237;45.586;13.782;2023-12-29T05:14:29;94.07;;;48.67;;
45490;SDS011;31237;45.586;13.782;2023-12-29T05:16:54;88.50;;;45.47;;
45490;SDS011;31237;45.586;13.782;2023-12-29T05:19:20;91.05;;;46.22;;
45490;SDS011;31237;45.586;13.782;2023-12-29T05:21:46;90.88;;;45.35;;
45490;SDS011;31237;45.586;13.782;2023-12-29T05:24:14;92.57;;;45.33;;
45490;SDS011;31237;45.586;13.782;2023-12-29T05:26:40;83.45;;;43.95;;
45490;SDS011;31237;45.586;13.782;2023-12-29T05:29:06;94.65;;;46.72;;
45490;SDS011;31237;45.586;13.782;2023-12-29T05:31:31;89.63;;;45.40;;
45490;SDS011;31237;45.586;13.782;2023-12-29T05:33:57;91.03;;;45.85;;
45490;SDS011;31237;45.586;13.782;2023-12-29T05:36:23;88.18;;;44.35;;
45490;SDS011;31237;45.586;13.782;2023-12-29T05:38:49;91.20;;;44.38;;
45490;SDS011;31237;45.586;13.782;2023-12-29T05:41:15;94.57;;;46.83;;
45490;SDS011;31237;45.586;13.782;2023-12-29T05:43:41;96.00;;;46.63;;
45490;SDS011;31237;45.586;13.782;2023-12-29T05:46:10;100.85;;;49.47;;
45490;SDS011;31237;45.586;13.782;2023-12-29T05:48:37;100.78;;;49.92;;
45490;SDS011;31237;45.586;13.782;2023-12-29T05:51:09;97.90;;;49.78;;
45490;SDS011;31237;45.586;13.782;2023-12-29T05:53:36;107.95;;;53.42;;
45490;SDS011;31237;45.586;13.782;2023-12-29T05:56:04;111.53;;;57.47;;
45490;SDS011;31237;45.586;13.782;2023-12-29T05:58:30;99.25;;;50.00;;
45490;SDS011;31237;45.586;13.782;2023-12-29T06:00:55;101.85;;;46.22;;
45490;SDS011;31237;45.586;13.782;2023-12-29T06:03:21;132.25;;;60.60;;
45490;SDS011;31237;45.586;13.782;2023-12-29T06:05:47;116.22;;;57.95;;
45490;SDS011;31237;45.586;13.782;2023-12-29T06:08:13;165.70;;;85.82;;
45490;SDS011;31237;45.586;13.782;2023-12-29T06:10:39;179.85;;;90.22;;
45490;SDS011;31237;45.586;13.782;2023-12-29T06:13:05;147.57;;;83.53;;
45490;SDS011;31237;45.586;13.782;2023-12-29T06:15:30;133.20;;;69.50;;
45490;SDS011;31237;45.586;13.782;2023-12-29T06:17:56;116.10;;;57.10;;
45490;SDS011;31237;45.586;13.782;2023-12-29T06:20:22;101.60;;;49.53;;
45490;SDS011;31237;45.586;13.782;2023-12-29T06:22:48;98.15;;;49.90;;
45490;SDS011;31237;45.586;13.782;2023-12-29T06:25:14;99.13;;;48.90;;
45490;SDS011;31237;45.586;13.782;2023-12-29T06:27:40;97.63;;;46.42;;
45490;SDS011;31237;45.586;13.782;2023-12-29T06:30:06;77.40;;;40.83;;
45490;SDS011;31237;45.586;13.782;2023-12-29T06:32:33;78.57;;;37.33;;
45490;SDS011;31237;45.586;13.782;2023-12-29T06:34:59;67.80;;;35.03;;
45490;SDS011;31237;45.586;13.782;2023-12-29T06:37:25;62.35;;;33.13;;
45490;SDS011;31237;45.586;13.782;2023-12-29T06:39:52;56.90;;;30.48;;
45490;SDS011;31237;45.586;13.782;2023-12-29T06:42:18;58.40;;;31.52;;
45490;SDS011;31237;45.586;13.782;2023-12-29T06:44:43;55.42;;;30.15;;
45490;SDS011;31237;45.586;13.782;2023-12-29T06:47:10;57.13;;;30.80;;
45490;SDS011;31237;45.586;13.782;2023-12-29T06:49:36;52.55;;;29.80;;
45490;SDS011;31237;45.586;13.782;2023-12-29T06:52:02;54.45;;;28.83;;
45490;SDS011;31237;45.586;13.782;2023-12-29T06:54:28;53.85;;;27.38;;
45490;SDS011;31237;45.586;13.782;2023-12-29T06:56:54;46.45;;;24.73;;
45490;SDS011;31237;45.586;13.782;2023-12-29T06:59:19;43.80;;;24.45;;
45490;SDS011;31237;45.586;13.782;2023-12-29T07:01:47;49.70;;;25.00;;
45490;SDS011;31237;45.586;13.782;2023-12-29T07:04:13;48.55;;;27.23;;
45490;SDS011;31237;45.586;13.782;2023-12-29T07:06:39;52.03;;;28.30;;
45490;SDS011;31237;45.586;13.782;2023-12-29T07:09:04;51.75;;;26.90;;
45490;SDS011;31237;45.586;13.782;2023-12-29T07:11:30;53.20;;;28.05;;
45490;SDS011;31237;45.586;13.782;2023-12-29T07:13:56;46.13;;;25.85;;
45490;SDS011;31237;45.586;13.782;2023-12-29T07:16:22;51.55;;;28.90;;
45490;SDS011;31237;45.586;13.782;2023-12-29T07:18:47;50.00;;;26.65;;
45490;SDS011;31237;45.586;13.782;2023-12-29T07:21:14;49.13;;;26.70;;
45490;SDS011;31237;45.586;13.782;2023-12-29T07:23:41;61.22;;;29.30;;
45490;SDS011;31237;45.586;13.782;2023-12-29T07:26:07;53.50;;;28.55;;
45490;SDS011;31237;45.586;13.782;2023-12-29T07:28:33;61.58;;;31.30;;
45490;SDS011;31237;45.586;13.782;2023-12-29T07:30:59;63.50;;;33.60;;
45490;SDS011;31237;45.586;13.782;2023-12-29T07:33:25;68.68;;;33.67;;
45490;SDS011;31237;45.586;13.782;2023-12-29T07:35:51;70.88;;;35.65;;
45490;SDS011;31237;45.586;13.782;2023-12-29T07:38:17;65.20;;;34.30;;
45490;SDS011;31237;45.586;13.782;2023-12-29T07:40:43;70.53;;;36.33;;
45490;SDS011;31237;45.586;13.782;2023-12-29T07:43:09;68.88;;;35.63;;
45490;SDS011;31237;45.586;13.782;2023-12-29T07:45:35;71.65;;;38.28;;
45490;SDS011;31237;45.586;13.782;2023-12-29T07:48:02;73.97;;;37.53;;
45490;SDS011;31237;45.586;13.782;2023-12-29T07:50:28;74.90;;;37.55;;
45490;SDS011;31237;45.586;13.782;2023-12-29T07:52:54;74.15;;;38.80;;
45490;SDS011;31237;45.586;13.782;2023-12-29T07:55:20;75.97;;;37.72;;
45490;SDS011;31237;45.586;13.782;2023-12-29T07:57:46;77.65;;;38.53;;
45490;SDS011;31237;45.586;13.782;2023-12-29T08:00:12;75.40;;;38.45;;
45490;SDS011;31237;45.586;13.782;2023-12-29T08:02:39;77.00;;;39.03;;
45490;SDS011;31237;45.586;13.782;2023-12-29T08:05:05;77.20;;;39.95;;
45490;SDS011;31237;45.586;13.782;2023-12-29T08:07:34;79.40;;;42.63;;
45490;SDS011;31237;45.586;13.782;2023-12-29T08:10:02;87.47;;;42.80;;
45490;SDS011;31237;45.586;13.782;2023-12-29T08:12:32;86.40;;;44.88;;
45490;SDS011;31237;45.586;13.782;2023-12-29T08:14:59;89.35;;;45.47;;
45490;SDS011;31237;45.586;13.782;2023-12-29T08:17:25;97.18;;;47.50;;
45490;SDS011;31237;45.586;13.782;2023-12-29T08:19:51;95.15;;;47.45;;
45490;SDS011;31237;45.586;13.782;2023-12-29T08:22:17;95.10;;;46.60;;
45490;SDS011;31237;45.586;13.782;2023-12-29T08:24:44;89.57;;;46.97;;
45490;SDS011;31237;45.586;13.782;2023-12-29T08:27:12;96.65;;;47.67;;
45490;SDS011;31237;45.586;13.782;2023-12-29T08:29:38;87.57;;;47.45;;
45490;SDS011;31237;45.586;13.782;2023-12-29T08:32:05;90.18;;;47.58;;
45490;SDS011;31237;45.586;13.782;2023-12-29T08:34:31;89.22;;;47.38;;
45490;SDS011;31237;45.586;13.782;2023-12-29T08:36:57;88.82;;;45.88;;
45490;SDS011;31237;45.586;13.782;2023-12-29T08:39:23;84.68;;;46.15;;
45490;SDS011;31237;45.586;13.782;2023-12-29T08:41:49;80.70;;;44.35;;
45490;SDS011;31237;45.586;13.782;2023-12-29T08:44:15;78.28;;;43.08;;
45490;SDS011;31237;45.586;13.782;2023-12-29T08:46:41;83.18;;;43.53;;
45490;SDS011;31237;45.586;13.782;2023-12-29T08:49:07;75.47;;;42.65;;
45490;SDS011;31237;45.586;13.782;2023-12-29T08:51:33;76.80;;;43.65;;
45490;SDS011;31237;45.586;13.782;2023-12-29T08:53:59;78.55;;;41.72;;
45490;SDS011;31237;45.586;13.782;2023-12-29T08:56:25;80.45;;;42.35;;
45490;SDS011;31237;45.586;13.782;2023-12-29T08:58:51;79.70;;;41.80;;
45490;SDS011;31237;45.586;13.782;2023-12-29T09:01:17;83.82;;;43.88;;
45490;SDS011;31237;45.586;13.782;2023-12-29T09:03:43;74.57;;;41.50;;
45490;SDS011;31237;45.586;13.782;2023-12-29T09:06:09;87.68;;;46.97;;
45490;SDS011;31237;45.586;13.782;2023-12-29T09:08:35;80.45;;;46.47;;
45490;SDS011;31237;45.586;13.782;2023-12-29T09:11:01;78.50;;;42.40;;
45490;SDS011;31237;45.586;13.782;2023-12-29T09:13:27;71.78;;;41.03;;
45490;SDS011;31237;45.586;13.782;2023-12-29T09:15:54;73.32;;;40.80;;
45490;SDS011;31237;45.586;13.782;2023-12-29T09:18:20;72.20;;;38.88;;
45490;SDS011;31237;45.586;13.782;2023-12-29T09:20:46;67.22;;;39.40;;
45490;SDS011;31237;45.586;13.782;2023-12-29T09:23:12;76.68;;;39.33;;
45490;SDS011;31237;45.586;13.782;2023-12-29T09:25:38;68.38;;;40.45;;
45490;SDS011;31237;45.586;13.782;2023-12-29T09:28:04;75.68;;;39.22;;
45490;SDS011;31237;45.586;13.782;2023-12-29T09:30:30;64.47;;;38.53;;
45490;SDS011;31237;45.586;13.782;2023-12-29T09:32:56;68.97;;;39.10;;
45490;SDS011;31237;45.586;13.782;2023-12-29T09:35:22;69.78;;;37.78;;
45490;SDS011;31237;45.586;13.782;2023-12-29T09:37:48;65.70;;;37.38;;
45490;SDS011;31237;45.586;13.782;2023-12-29T09:40:14;63.10;;;35.17;;
45490;SDS011;31237;45.586;13.782;2023-12-29T09:42:42;64.70;;;35.90;;
45490;SDS011;31237;45.586;13.782;2023-12-29T09:45:12;61.30;;;35.28;;
45490;SDS011;31237;45.586;13.782;2023-12-29T09:47:39;67.25;;;36.13;;
45490;SDS011;31237;45.586;13.782;2023-12-29T09:50:07;61.28;;;35.45;;
45490;SDS011;31237;45.586;13.782;2023-12-29T09:52:37;59.67;;;34.50;;
45490;SDS011;31237;45.586;13.782;2023-12-29T09:55:05;67.88;;;35.05;;
45490;SDS011;31237;45.586;13.782;2023-12-29T09:57:35;57.15;;;33.72;;
45490;SDS011;31237;45.586;13.782;2023-12-29T10:00:02;60.28;;;35.50;;
45490;SDS011;31237;45.586;13.782;2023-12-29T10:02:28;56.78;;;32.35;;
45490;SDS011;31237;45.586;13.782;2023-12-29T10:04:55;56.25;;;32.38;;
45490;SDS011;31237;45.586;13.782;2023-12-29T10:07:25;58.58;;;33.63;;
45490;SDS011;31237;45.586;13.782;2023-12-29T10:09:55;61.08;;;34.58;;
45490;SDS011;31237;45.586;13.782;2023-12-29T10:12:23;56.05;;;30.90;;
45490;SDS011;31237;45.586;13.782;2023-12-29T10:14:57;52.13;;;31.80;;
45490;SDS011;31237;45.586;13.782;2023-12-29T10:17:31;56.83;;;32.80;;
45490;SDS011;31237;45.586;13.782;2023-12-29T10:23:22;52.78;;;31.75;;
45490;SDS011;31237;45.586;13.782;2023-12-29T10:26:11;51.85;;;32.47;;
45490;SDS011;31237;45.586;13.782;2023-12-29T10:28:37;53.08;;;31.30;;
45490;SDS011;31237;45.586;13.782;2023-12-29T10:31:06;56.03;;;32.85;;
45490;SDS011;31237;45.586;13.782;2023-12-29T10:33:34;58.65;;;32.03;;
45490;SDS011;31237;45.586;13.782;2023-12-29T10:36:01;50.92;;;31.00;;
45490;SDS011;31237;45.586;13.782;2023-12-29T10:38:29;57.65;;;32.70;;
45490;SDS011;31237;45.586;13.782;2023-12-29T10:41:18;50.38;;;31.60;;
45490;SDS011;31237;45.586;13.782;2023-12-29T10:43:45;57.75;;;33.03;;
45490;SDS011;31237;45.586;13.782;2023-12-29T10:46:19;54.40;;;32.72;;
45490;SDS011;31237;45.586;13.782;2023-12-29T10:48:46;54.45;;;33.50;;
45490;SDS011;31237;45.586;13.782;2023-12-29T10:51:11;56.38;;;33.20;;
45490;SDS011;31237;45.586;13.782;2023-12-29T10:53:37;55.63;;;32.30;;
45490;SDS011;31237;45.586;13.782;2023-12-29T10:56:03;56.35;;;34.35;;
45490;SDS011;31237;45.586;13.782;2023-12-29T10:58:29;57.13;;;32.95;;
45490;SDS011;31237;45.586;13.782;2023-12-29T11:00:57;58.63;;;32.30;;
45490;SDS011;31237;45.586;13.782;2023-12-29T11:03:26;57.58;;;33.92;;
45490;SDS011;31237;45.586;13.782;2023-12-29T11:05:58;63.15;;;34.13;;
45490;SDS011;31237;45.586;13.782;2023-12-29T11:08:27;54.78;;;32.17;;
45490;SDS011;31237;45.586;13.782;2023-12-29T11:10:53;53.83;;;32.55;;
45490;SDS011;31237;45.586;13.782;2023-12-29T11:13:20;56.25;;;33.03;;
45490;SDS011;31237;45.586;13.782;2023-12-29T11:15:46;55.58;;;33.00;;
45490;SDS011;31237;45.586;13.782;2023-12-29T11:18:13;58.75;;;33.35;;
45490;SDS011;31237;45.586;13.782;2023-12-29T11:20:41;54.25;;;32.47;;
45490;SDS011;31237;45.586;13.782;2023-12-29T11:23:08;56.63;;;33.75;;
45490;SDS011;31237;45.586;13.782;2023-12-29T11:25:35;56.10;;;31.58;;
45490;SDS011;31237;45.586;13.782;2023-12-29T11:28:01;60.70;;;34.65;;
45490;SDS011;31237;45.586;13.782;2023-12-29T11:30:28;62.22;;;36.00;;
45490;SDS011;31237;45.586;13.782;2023-12-29T11:35:32;60.70;;;36.37;;
45490;SDS011;31237;45.586;13.782;2023-12-29T11:40:55;59.70;;;35.95;;
45490;SDS011;31237;45.586;13.782;2023-12-29T11:43:29;56.50;;;34.10;;
45490;SDS011;31237;45.586;13.782;2023-12-29T11:45:55;54.00;;;32.97;;
45490;SDS011;31237;45.586;13.782;2023-12-29T11:51:52;57.92;;;32.83;;
45490;SDS011;31237;45.586;13.782;2023-12-29T11:54:23;60.10;;;34.17;;
45490;SDS011;31237;45.586;13.782;2023-12-29T11:56:51;58.50;;;36.75;;
45490;SDS011;31237;45.586;13.782;2023-12-29T11:59:21;56.85;;;36.22;;
45490;SDS011;31237;45.586;13.782;2023-12-29T12:01:52;60.92;;;36.33;;
45490;SDS011;31237;45.586;13.782;2023-12-29T12:07:13;57.57;;;34.10;;
45490;SDS011;31237;45.586;13.782;2023-12-29T12:09:52;66.00;;;38.78;;
45490;SDS011;31237;45.586;13.782;2023-12-29T12:12:56;66.18;;;38.70;;
45490;SDS011;31237;45.586;13.782;2023-12-29T12:15:32;64.30;;;38.53;;
45490;SDS011;31237;45.586;13.782;2023-12-29T12:18:01;68.20;;;39.88;;
45490;SDS011;31237;45.586;13.782;2023-12-29T12:20:30;69.90;;;38.70;;
45490;SDS011;31237;45.586;13.782;2023-12-29T12:22:57;63.63;;;38.78;;
45490;SDS011;31237;45.586;13.782;2023-12-29T12:25:29;65.28;;;39.40;;
45490;SDS011;31237;45.586;13.782;2023-12-29T12:27:59;65.05;;;38.60;;
45490;SDS011;31237;45.586;13.782;2023-12-29T12:30:30;61.83;;;38.88;;
45490;SDS011;31237;45.586;13.782;2023-12-29T12:33:02;62.95;;;39.22;;
45490;SDS011;31237;45.586;13.782;2023-12-29T12:35:29;63.45;;;38.10;;
45490;SDS011;31237;45.586;13.782;2023-12-29T12:38:11;63.08;;;37.53;;
45490;SDS011;31237;45.586;13.782;2023-12-29T12:40:38;66.40;;;38.67;;
45490;SDS011;31237;45.586;13.782;2023-12-29T12:43:05;63.30;;;37.22;;
45490;SDS011;31237;45.586;13.782;2023-12-29T12:45:42;67.38;;;37.42;;
45490;SDS011;31237;45.586;13.782;2023-12-29T12:48:29;67.00;;;38.65;;
45490;SDS011;31237;45.586;13.782;2023-12-29T12:51:00;68.88;;;38.47;;
45490;SDS011;31237;45.586;13.782;2023-12-29T12:53:26;61.03;;;37.95;;
45490;SDS011;31237;45.586;13.782;2023-12-29T12:55:52;70.50;;;39.33;;
45490;SDS011;31237;45.586;13.782;2023-12-29T12:58:19;70.25;;;39.63;;
45490;SDS011;31237;45.586;13.782;2023-12-29T13:00:48;65.07;;;37.38;;
45490;SDS011;31237;45.586;13.782;2023-12-29T13:03:15;68.95;;;40.40;;
45490;SDS011;31237;45.586;13.782;2023-12-29T13:05:41;66.00;;;38.95;;
45490;SDS011;31237;45.586;13.782;2023-12-29T13:08:07;66.03;;;38.60;;
45490;SDS011;31237;45.586;13.782;2023-12-29T13:10:34;67.53;;;40.95;;
45490;SDS011;31237;45.586;13.782;2023-12-29T13:13:05;60.70;;;38.35;;
45490;SDS011;31237;45.586;13.782;2023-12-29T13:15:30;60.63;;;36.17;;
45490;SDS011;31237;45.586;13.782;2023-12-29T13:17:56;66.60;;;37.65;;
45490;SDS011;31237;45.586;13.782;2023-12-29T13:20:22;65.68;;;37.92;;
45490;SDS011;31237;45.586;13.782;2023-12-29T13:22:51;63.20;;;38.00;;
45490;SDS011;31237;45.586;13.782;2023-12-29T13:25:20;62.45;;;36.60;;
45490;SDS011;31237;45.586;13.782;2023-12-29T13:27:49;66.50;;;37.35;;
45490;SDS011;31237;45.586;13.782;2023-12-29T13:30:15;60.38;;;37.67;;
45490;SDS011;31237;45.586;13.782;2023-12-29T13:32:42;63.80;;;37.55;;
45490;SDS011;31237;45.586;13.782;2023-12-29T13:35:23;60.08;;;35.38;;
45490;SDS011;31237;45.586;13.782;2023-12-29T13:38:07;65.80;;;37.42;;
45490;SDS011;31237;45.586;13.782;2023-12-29T13:40:38;61.63;;;36.65;;
45490;SDS011;31237;45.586;13.782;2023-12-29T13:43:08;60.15;;;36.15;;
45490;SDS011;31237;45.586;13.782;2023-12-29T13:45:36;65.70;;;38.10;;
45490;SDS011;31237;45.586;13.782;2023-12-29T13:48:05;74.75;;;43.33;;
45490;SDS011;31237;45.586;13.782;2023-12-29T13:50:32;72.68;;;44.00;;
45490;SDS011;31237;45.586;13.782;2023-12-29T13:52:58;69.13;;;40.72;;
45490;SDS011;31237;45.586;13.782;2023-12-29T13:55:24;70.35;;;41.17;;
45490;SDS011;31237;45.586;13.782;2023-12-29T13:57:50;66.80;;;38.63;;
45490;SDS011;31237;45.586;13.782;2023-12-29T14:00:23;64.13;;;38.80;;
45490;SDS011;31237;45.586;13.782;2023-12-29T14:07:59;66.00;;;37.55;;
45490;SDS011;31237;45.586;13.782;2023-12-29T14:10:31;62.28;;;35.75;;
45490;SDS011;31237;45.586;13.782;2023-12-29T14:13:07;63.88;;;37.20;;
45490;SDS011;31237;45.586;13.782;2023-12-29T14:15:39;62.70;;;36.58;;
45490;SDS011;31237;45.586;13.782;2023-12-29T14:18:32;63.78;;;37.63;;
45490;SDS011;31237;45.586;13.782;2023-12-29T14:20:54;58.88;;;34.75;;
45490;SDS011;31237;45.586;13.782;2023-12-29T14:23:20;60.03;;;37.13;;
45490;SDS011;31237;45.586;13.782;2023-12-29T14:25:45;58.25;;;35.38;;
45490;SDS011;31237;45.586;13.782;2023-12-29T14:28:16;66.60;;;35.88;;